Advance Mills, Virginia
Current Conditions -  °F | °C
As of 5:53 PM on Tuesday 27 Jan 2015 (Local Time) from KCHO Reporting Station
Overcast Overcast  
Wind Chill: 22°   Ceiling: 5000
Heat Index: 32°   Visibility: 10mi
Dew Point: 18°   Wind: 14mph
Humidity: 56%   Direction: 320°NW
Pressure: 29.86"   Gusts: 17mph
Location:  38.2469°N, 78.3926°W
Report Text: KCHO 272253Z 32012G15KT 10SM OVC050 00/M08 A2986 RMK AO2 SLP116 T00001078
Loading
Personal Weather Stations






























Interactive Weather Map New forecast layout! Learn more

10-Day Weather Forecast

Advertisements
Track Severe Weather on mobile